createdAt,value
2022-10-09T00:00:11.788Z,1.20
2022-10-09T00:02:39.587Z,1.60
2022-10-09T00:05:08.210Z,1.10
2022-10-09T00:07:35.995Z,1.50
2022-10-09T00:10:04.068Z,1.20
2022-10-09T00:12:31.816Z,1.47
2022-10-09T00:14:59.632Z,1.63
2022-10-09T00:17:28.809Z,1.60
2022-10-09T00:19:56.590Z,1.20
2022-10-09T00:22:24.452Z,1.10
2022-10-09T00:24:52.146Z,1.03
2022-10-09T00:27:19.888Z,1.30
2022-10-09T00:29:47.710Z,1.50
2022-10-09T00:32:16.009Z,1.30
2022-10-09T00:34:45.388Z,1.43
2022-10-09T00:37:13.119Z,1.10
2022-10-09T00:39:40.987Z,1.03
2022-10-09T00:42:11.784Z,1.20
2022-10-09T00:44:54.966Z,1.30
2022-10-09T00:47:27.536Z,1.13
2022-10-09T00:50:01.061Z,1.13
2022-10-09T00:52:29.172Z,1.10
2022-10-09T00:54:58.120Z,1.37
2022-10-09T00:57:26.402Z,1.60
2022-10-09T00:59:54.307Z,1.20
2022-10-09T01:02:23.306Z,1.20
2022-10-09T01:04:51.151Z,1.33
2022-10-09T01:07:29.936Z,0.93
2022-10-09T01:10:03.335Z,1.30
2022-10-09T01:12:47.085Z,1.40
2022-10-09T01:15:18.971Z,1.40
2022-10-09T01:17:54.784Z,1.40
2022-10-09T01:20:39.030Z,1.30
2022-10-09T01:23:29.371Z,1.40
2022-10-09T01:26:07.075Z,1.27
2022-10-09T01:28:37.526Z,1.30
2022-10-09T01:31:07.576Z,1.40
2022-10-09T01:33:35.900Z,1.83
2022-10-09T01:36:05.441Z,1.80
2022-10-09T01:38:35.157Z,1.40
2022-10-09T01:41:05.618Z,1.40
2022-10-09T01:43:33.349Z,1.50
2022-10-09T01:46:24.344Z,1.70
2022-10-09T01:49:04.623Z,1.60
2022-10-09T01:51:37.667Z,1.63
2022-10-09T01:54:09.284Z,2.13
2022-10-09T01:56:40.466Z,1.80
2022-10-09T01:59:15.841Z,1.20
2022-10-09T02:01:47.177Z,1.30
2022-10-09T02:04:17.972Z,1.70
2022-10-09T02:06:47.800Z,1.80
2022-10-09T02:09:18.899Z,1.50
2022-10-09T02:11:52.580Z,1.00
2022-10-09T02:14:20.395Z,1.40
2022-10-09T02:16:55.753Z,1.27
2022-10-09T02:19:28.058Z,1.40
2022-10-09T02:21:58.487Z,1.20
2022-10-09T02:24:26.822Z,1.20
2022-10-09T02:26:57.391Z,1.43
2022-10-09T02:29:25.872Z,1.47
2022-10-09T02:31:55.074Z,1.43
2022-10-09T02:34:22.972Z,1.50
2022-10-09T02:36:51.152Z,1.30
2022-10-09T02:39:19.204Z,1.33
2022-10-09T02:41:46.909Z,1.23
2022-10-09T02:44:14.608Z,1.43
2022-10-09T02:46:42.353Z,1.40
2022-10-09T02:49:11.625Z,1.17
2022-10-09T02:51:39.429Z,1.40
2022-10-09T02:54:07.424Z,1.53
2022-10-09T02:56:38.737Z,1.20
2022-10-09T02:59:07.392Z,1.03
2022-10-09T03:01:35.551Z,1.70
2022-10-09T03:04:03.454Z,1.60
2022-10-09T03:06:32.629Z,1.00
2022-10-09T03:09:00.382Z,0.97
2022-10-09T03:11:28.272Z,1.60
2022-10-09T03:13:56.255Z,1.60
2022-10-09T03:16:25.370Z,1.37
2022-10-09T03:18:53.819Z,1.30
2022-10-09T03:21:23.628Z,1.30
2022-10-09T03:23:53.455Z,1.40
2022-10-09T03:26:23.381Z,1.30
2022-10-09T03:28:52.739Z,1.20
2022-10-09T03:31:46.991Z,1.50
2022-10-09T03:34:11.808Z,1.70
2022-10-09T03:36:39.787Z,1.60
2022-10-09T03:39:09.003Z,1.20
2022-10-09T03:41:36.771Z,1.37
2022-10-09T03:44:04.535Z,1.20
2022-10-09T03:46:32.407Z,1.40
2022-10-09T03:49:00.222Z,1.30
2022-10-09T03:51:27.980Z,1.40
2022-10-09T03:53:55.743Z,1.20
2022-10-09T03:56:24.914Z,1.47
2022-10-09T03:58:52.633Z,1.27
2022-10-09T04:01:20.378Z,1.30
2022-10-09T04:03:48.149Z,1.40
2022-10-09T04:06:15.894Z,1.60
2022-10-09T04:08:43.599Z,1.57
2022-10-09T04:11:13.941Z,1.67
2022-10-09T04:13:45.223Z,1.50
2022-10-09T04:16:16.822Z,1.80
2022-10-09T04:18:48.068Z,1.77
2022-10-09T04:21:19.431Z,1.50
2022-10-09T04:23:48.870Z,1.60
2022-10-09T04:26:18.500Z,1.63
2022-10-09T04:28:50.423Z,1.63
2022-10-09T04:31:18.556Z,1.47
2022-10-09T04:33:50.577Z,1.60
2022-10-09T04:36:18.743Z,1.93
2022-10-09T04:38:48.338Z,1.50
2022-10-09T04:41:18.553Z,1.80
2022-10-09T04:43:49.866Z,1.63
2022-10-09T04:46:20.502Z,1.70
2022-10-09T04:48:48.867Z,1.77
2022-10-09T04:51:19.699Z,1.83
2022-10-09T04:53:48.623Z,2.23
2022-10-09T04:56:27.321Z,2.00
2022-10-09T04:58:59.954Z,1.60
2022-10-09T05:01:33.126Z,1.87
2022-10-09T05:04:10.873Z,1.50
2022-10-09T05:06:39.168Z,2.00
2022-10-09T05:09:06.878Z,1.60
2022-10-09T05:11:42.354Z,1.70
2022-10-09T05:14:14.288Z,1.57
2022-10-09T05:17:08.335Z,1.90
2022-10-09T05:19:39.898Z,1.90
2022-10-09T05:22:08.880Z,2.00
2022-10-09T05:24:39.341Z,2.07
2022-10-09T05:27:08.801Z,2.10
2022-10-09T05:29:38.695Z,1.83
2022-10-09T05:32:10.064Z,1.90
2022-10-09T05:34:38.997Z,2.10
2022-10-09T05:37:08.883Z,1.70
2022-10-09T05:39:40.543Z,1.80
2022-10-09T05:42:08.757Z,1.77
2022-10-09T05:44:39.899Z,1.67
2022-10-09T05:47:09.065Z,1.87
2022-10-09T05:49:38.762Z,1.43
2022-10-09T05:52:06.951Z,1.63
2022-10-09T05:54:38.638Z,1.70
2022-10-09T05:57:11.245Z,1.63
2022-10-09T05:59:44.036Z,2.00
2022-10-09T06:02:17.775Z,2.10
2022-10-09T06:04:49.865Z,2.10
2022-10-09T06:07:18.996Z,2.20
2022-10-09T06:09:49.701Z,2.07
2022-10-09T06:12:20.655Z,1.87
2022-10-09T06:14:50.040Z,2.27
2022-10-09T06:17:17.743Z,2.00
2022-10-09T06:19:47.542Z,2.17
2022-10-09T06:22:15.455Z,2.20
2022-10-09T06:24:47.623Z,1.80
2022-10-09T06:27:17.708Z,2.40
2022-10-09T06:29:48.128Z,2.00
2022-10-09T06:32:19.300Z,1.63
2022-10-09T06:34:49.761Z,1.87
2022-10-09T06:37:22.764Z,1.87
2022-10-09T06:39:50.475Z,1.80
2022-10-09T06:42:22.899Z,1.83
2022-10-09T06:44:50.641Z,2.10
2022-10-09T06:47:20.410Z,1.70
2022-10-09T06:49:51.119Z,1.90
2022-10-09T06:52:19.138Z,1.77
2022-10-09T06:54:48.937Z,1.70
2022-10-09T06:57:19.629Z,1.90
2022-10-09T06:59:50.159Z,2.33
2022-10-09T07:02:20.619Z,2.10
2022-10-09T07:04:49.606Z,1.80
2022-10-09T07:07:20.338Z,1.90
2022-10-09T07:09:49.079Z,2.03
2022-10-09T07:12:18.833Z,2.07
2022-10-09T07:14:47.050Z,2.27
2022-10-09T07:17:25.073Z,2.13
2022-10-09T07:19:56.657Z,2.13
2022-10-09T07:22:29.323Z,1.60
2022-10-09T07:25:09.493Z,2.30
2022-10-09T07:27:39.546Z,1.90
2022-10-09T07:30:11.165Z,2.10
2022-10-09T07:32:40.992Z,2.07
2022-10-09T07:35:09.429Z,1.97
2022-10-09T07:37:38.414Z,1.87
2022-10-09T07:40:11.791Z,2.13
2022-10-09T07:42:40.173Z,1.83
2022-10-09T07:45:09.849Z,2.30
2022-10-09T07:47:43.115Z,2.10
2022-10-09T07:50:11.004Z,2.50
2022-10-09T07:52:46.511Z,2.20
2022-10-09T07:55:18.710Z,1.97
2022-10-09T07:57:56.881Z,2.50
2022-10-09T08:00:29.895Z,2.20
2022-10-09T08:03:00.660Z,2.27
2022-10-09T08:05:29.996Z,2.47
2022-10-09T08:07:59.045Z,2.47
2022-10-09T08:10:31.123Z,1.90
2022-10-09T08:13:00.023Z,2.10
2022-10-09T08:15:29.222Z,2.40
2022-10-09T08:18:01.390Z,2.33
2022-10-09T08:20:29.983Z,2.03
2022-10-09T08:22:59.296Z,2.13
2022-10-09T08:25:29.203Z,1.93
2022-10-09T08:27:59.334Z,2.20
2022-10-09T08:30:29.831Z,2.30
2022-10-09T08:33:07.987Z,2.33
2022-10-09T08:35:38.927Z,2.20
2022-10-09T08:38:21.253Z,2.13
2022-10-09T08:41:09.462Z,1.93
2022-10-09T08:43:48.009Z,2.00
2022-10-09T08:46:27.896Z,2.37
2022-10-09T08:49:00.231Z,2.20
2022-10-09T08:51:38.285Z,1.80
2022-10-09T08:54:18.440Z,2.67
2022-10-09T08:56:50.808Z,2.27
2022-10-09T08:59:19.583Z,1.87
2022-10-09T09:02:08.109Z,2.30
2022-10-09T09:05:01.093Z,2.20
2022-10-09T09:07:39.248Z,2.30
2022-10-09T09:10:20.270Z,2.23
2022-10-09T09:12:57.000Z,2.20
2022-10-09T09:15:49.241Z,2.40
2022-10-09T09:18:42.651Z,2.50
2022-10-09T09:21:38.063Z,2.50
2022-10-09T09:24:30.920Z,2.50
2022-10-09T09:27:07.094Z,1.90
2022-10-09T09:29:43.406Z,1.97
2022-10-09T09:32:20.414Z,1.93
2022-10-09T09:34:50.755Z,2.37
2022-10-09T09:37:20.463Z,1.90
2022-10-09T09:42:37.275Z,1.93
2022-10-09T09:45:09.065Z,1.73
2022-10-09T09:47:42.092Z,1.60
2022-10-09T09:50:28.459Z,1.90
2022-10-09T09:53:07.933Z,1.60
2022-10-09T09:55:38.458Z,1.60
2022-10-09T09:58:20.798Z,1.60
2022-10-09T10:01:10.457Z,1.17
2022-10-09T10:04:00.108Z,1.30
2022-10-09T10:06:33.307Z,1.70
2022-10-09T10:09:09.383Z,1.60
2022-10-09T10:11:37.093Z,1.33
2022-10-09T10:14:10.685Z,1.40
2022-10-09T10:16:41.361Z,1.50
2022-10-09T10:19:24.686Z,1.50
2022-10-09T10:22:06.189Z,1.50
2022-10-09T10:24:49.237Z,1.20
2022-10-09T10:27:31.173Z,1.60
2022-10-09T10:30:09.348Z,1.53
2022-10-09T10:32:59.504Z,1.30
2022-10-09T10:35:39.111Z,1.43
2022-10-09T10:38:18.024Z,1.40
2022-10-09T10:40:57.244Z,1.27
2022-10-09T10:43:38.407Z,1.13
2022-10-09T10:46:18.524Z,1.30
2022-10-09T10:48:50.256Z,1.37
2022-10-09T10:51:47.275Z,1.60
2022-10-09T10:54:51.132Z,1.53
2022-10-09T10:57:41.296Z,1.63
2022-10-09T11:00:15.267Z,1.87
2022-10-09T11:03:05.727Z,1.60
2022-10-09T11:05:50.164Z,1.60
2022-10-09T11:08:40.115Z,1.80
2022-10-09T11:11:19.574Z,1.80
2022-10-09T11:13:59.775Z,1.30
2022-10-09T11:16:50.820Z,1.40
2022-10-09T11:19:43.152Z,1.40
2022-10-09T11:22:30.038Z,1.50
2022-10-09T11:25:36.932Z,1.30
2022-10-09T11:28:18.202Z,1.23
2022-10-09T11:30:59.177Z,1.40
2022-10-09T11:33:38.344Z,1.87
2022-10-09T11:36:17.311Z,1.37
2022-10-09T11:38:53.478Z,1.43
2022-10-09T11:41:21.747Z,1.47
2022-10-09T11:44:01.751Z,1.40
2022-10-09T11:46:47.385Z,1.50
2022-10-09T11:49:31.954Z,1.63
2022-10-09T11:52:08.701Z,1.53
2022-10-09T11:54:38.497Z,1.50
2022-10-09T11:57:14.297Z,1.43
2022-10-09T11:59:43.047Z,1.23
2022-10-09T12:02:26.718Z,1.60
2022-10-09T12:04:56.754Z,1.40
2022-10-09T12:07:34.011Z,1.50
2022-10-09T12:10:06.079Z,1.30
2022-10-09T12:12:34.760Z,1.50
2022-10-09T12:15:16.721Z,1.57
2022-10-09T12:17:50.389Z,1.10
2022-10-09T12:20:22.448Z,1.43
2022-10-09T12:23:25.278Z,1.57
2022-10-09T12:25:47.464Z,1.70
2022-10-09T12:28:29.958Z,1.40
2022-10-09T12:31:05.506Z,1.43
2022-10-09T12:33:49.737Z,1.10
2022-10-09T12:36:29.666Z,1.23
2022-10-09T12:38:59.730Z,1.00
2022-10-09T12:41:31.204Z,1.07
2022-10-09T12:44:00.361Z,0.93
2022-10-09T12:46:31.489Z,1.10
2022-10-09T12:49:08.849Z,0.73
2022-10-09T12:51:38.604Z,1.20
2022-10-09T12:54:11.259Z,1.20
2022-10-09T12:56:42.226Z,1.10
2022-10-09T12:59:15.568Z,1.13
2022-10-09T13:01:49.636Z,0.90
2022-10-09T13:04:40.002Z,1.10
2022-10-09T13:07:21.481Z,0.97
2022-10-09T13:10:01.289Z,1.00
2022-10-09T13:12:31.236Z,1.17
2022-10-09T13:15:06.022Z,1.30
2022-10-09T13:17:49.031Z,1.20
2022-10-09T13:20:38.784Z,0.90
2022-10-09T13:23:30.360Z,1.10
2022-10-09T13:26:03.443Z,1.10
2022-10-09T13:28:34.965Z,1.10
2022-10-09T13:31:10.192Z,0.97
2022-10-09T13:33:40.105Z,1.00
2022-10-09T13:36:16.955Z,1.00
2022-10-09T13:38:50.211Z,1.37
2022-10-09T13:41:32.242Z,1.20
2022-10-09T13:43:59.950Z,0.80
2022-10-09T13:46:35.335Z,0.87
2022-10-09T13:49:04.078Z,1.10
2022-10-09T13:51:36.704Z,0.93
2022-10-09T13:54:08.853Z,1.10
2022-10-09T13:56:39.923Z,1.10
2022-10-09T13:59:21.867Z,0.90
2022-10-09T14:01:50.184Z,0.97
2022-10-09T14:04:30.403Z,1.10
2022-10-09T14:07:01.562Z,1.00
2022-10-09T14:09:30.280Z,1.17
2022-10-09T14:12:02.430Z,1.00
2022-10-09T14:14:30.176Z,1.00
2022-10-09T14:17:02.573Z,1.20
2022-10-09T14:19:30.317Z,1.03
2022-10-09T14:22:00.983Z,1.00
2022-10-09T14:24:30.303Z,0.90
2022-10-09T14:27:00.102Z,1.17
2022-10-09T14:29:31.308Z,1.20
2022-10-09T14:32:00.487Z,1.10
2022-10-09T14:34:30.356Z,1.13
2022-10-09T14:37:04.892Z,1.07
2022-10-09T14:39:51.839Z,1.00
2022-10-09T14:42:20.331Z,1.40
2022-10-09T14:44:51.484Z,1.43
2022-10-09T14:47:22.174Z,1.37
2022-10-09T14:49:51.034Z,1.30
2022-10-09T14:52:20.171Z,1.43
2022-10-09T14:54:51.851Z,1.53
2022-10-09T14:57:26.020Z,1.23
2022-10-09T14:59:56.402Z,1.47
2022-10-09T15:02:30.059Z,1.63
2022-10-09T15:05:01.990Z,1.60
2022-10-09T15:07:31.291Z,1.30
2022-10-09T15:10:02.447Z,1.70
2022-10-09T15:12:30.355Z,1.50
2022-10-09T15:14:59.018Z,1.47
2022-10-09T15:17:29.079Z,1.00
2022-10-09T15:20:00.385Z,1.10
2022-10-09T15:22:34.023Z,1.30
2022-10-09T15:25:05.688Z,1.00
2022-10-09T15:27:34.353Z,1.30
2022-10-09T15:30:02.361Z,1.40
2022-10-09T15:32:30.223Z,1.00
2022-10-09T15:35:00.898Z,1.13
2022-10-09T15:37:30.153Z,1.33
2022-10-09T15:40:00.606Z,1.40
2022-10-09T15:42:32.674Z,1.57
2022-10-09T15:45:00.336Z,1.00
2022-10-09T15:47:49.944Z,1.30
2022-10-09T15:50:21.359Z,1.30
2022-10-09T15:53:02.341Z,1.20
2022-10-09T15:55:30.909Z,1.27
2022-10-09T15:58:00.845Z,1.13
2022-10-09T16:00:31.511Z,1.30
2022-10-09T16:03:00.603Z,1.13
2022-10-09T16:05:30.796Z,1.53
2022-10-09T16:08:01.238Z,1.40
2022-10-09T16:10:42.198Z,1.20
2022-10-09T16:13:21.639Z,1.43
2022-10-09T16:15:51.774Z,1.20
2022-10-09T16:18:22.714Z,1.60
2022-10-09T16:20:51.329Z,1.47
2022-10-09T16:23:26.406Z,1.60
2022-10-09T16:26:00.166Z,1.50
2022-10-09T16:28:40.566Z,1.50
2022-10-09T16:31:21.447Z,1.70
2022-10-09T16:33:52.082Z,1.40
2022-10-09T16:36:20.635Z,1.50
2022-10-09T16:38:50.738Z,1.30
2022-10-09T16:41:25.290Z,1.30
2022-10-09T16:44:08.378Z,1.17
2022-10-09T16:46:39.180Z,1.50
2022-10-09T16:49:09.923Z,1.70
2022-10-09T16:51:40.719Z,1.30
2022-10-09T16:54:11.233Z,1.57
2022-10-09T16:56:42.314Z,1.57
2022-10-09T16:59:21.016Z,1.30
2022-10-09T17:01:49.631Z,1.80
2022-10-09T17:04:19.800Z,1.70
2022-10-09T17:06:51.235Z,1.77
2022-10-09T17:09:19.363Z,1.40
2022-10-09T17:11:50.654Z,1.80
2022-10-09T17:14:22.506Z,1.80
2022-10-09T17:16:50.895Z,1.53
2022-10-09T17:19:20.857Z,1.70
2022-10-09T17:21:51.175Z,1.80
2022-10-09T17:24:21.955Z,1.67
2022-10-09T17:26:50.768Z,2.20
2022-10-09T17:29:21.235Z,2.77
2022-10-09T17:31:51.147Z,2.70
2022-10-09T17:34:22.971Z,3.07
2022-10-09T17:36:53.087Z,2.47
2022-10-09T17:39:20.880Z,2.07
2022-10-09T17:42:00.855Z,1.73
2022-10-09T17:44:31.994Z,1.77
2022-10-09T17:47:08.651Z,1.60
2022-10-09T17:49:40.391Z,1.67
2022-10-09T17:52:11.228Z,1.63
2022-10-09T17:54:41.465Z,1.60
2022-10-09T17:57:14.321Z,1.80
2022-10-09T17:59:42.730Z,1.63
2022-10-09T18:02:18.495Z,1.90
2022-10-09T18:04:50.377Z,1.60
2022-10-09T18:07:21.147Z,1.57
2022-10-09T18:09:51.714Z,1.53
2022-10-09T18:12:31.525Z,1.40
2022-10-09T18:15:00.839Z,1.27
2022-10-09T18:17:41.830Z,1.80
2022-10-09T18:20:19.566Z,1.57
2022-10-09T18:22:49.638Z,1.57
2022-10-09T18:25:22.867Z,1.80
2022-10-09T18:27:52.103Z,1.60
2022-10-09T18:30:21.052Z,1.60
2022-10-09T18:32:52.840Z,1.63
2022-10-09T18:35:20.934Z,1.60
2022-10-09T18:37:51.273Z,1.57
2022-10-09T18:40:22.817Z,2.10
2022-10-09T18:42:52.794Z,2.70
2022-10-09T18:45:24.828Z,2.20
2022-10-09T18:48:02.802Z,2.30
2022-10-09T18:50:31.922Z,1.90
2022-10-09T18:53:01.876Z,2.10
2022-10-09T18:55:30.957Z,1.73
2022-10-09T18:58:07.358Z,1.80
2022-10-09T19:00:40.092Z,1.73
2022-10-09T19:03:11.320Z,1.80
2022-10-09T19:05:40.868Z,2.10
2022-10-09T19:08:11.883Z,1.73
2022-10-09T19:10:41.738Z,2.00
2022-10-09T19:13:14.894Z,1.93
2022-10-09T19:15:42.758Z,1.80
2022-10-09T19:18:12.529Z,2.00
2022-10-09T19:20:44.665Z,1.97
2022-10-09T19:23:18.663Z,1.70
2022-10-09T19:25:53.150Z,2.00
2022-10-09T19:28:22.424Z,1.90
2022-10-09T19:30:51.819Z,2.00
2022-10-09T19:33:21.742Z,2.40
2022-10-09T19:35:53.193Z,2.00
2022-10-09T19:38:22.757Z,2.07
2022-10-09T19:40:51.246Z,2.07
2022-10-09T19:43:25.133Z,1.90
2022-10-09T19:46:02.026Z,1.80
2022-10-09T19:48:32.946Z,2.10
2022-10-09T19:51:12.092Z,2.00
2022-10-09T19:53:47.327Z,1.90
2022-10-09T19:56:20.915Z,1.73
2022-10-09T19:58:51.142Z,2.00
2022-10-09T20:01:21.709Z,2.33
2022-10-09T20:04:11.381Z,1.63
2022-10-09T20:06:42.594Z,1.73
2022-10-09T20:09:13.585Z,1.67
2022-10-09T20:11:42.671Z,1.83
2022-10-09T20:14:13.168Z,1.60
2022-10-09T20:16:41.322Z,1.90
2022-10-09T20:19:11.957Z,1.80
2022-10-09T20:21:41.823Z,2.13
2022-10-09T20:24:11.342Z,1.83
2022-10-09T20:26:43.284Z,1.77
2022-10-09T20:29:11.561Z,1.67
2022-10-09T20:31:41.854Z,1.90
2022-10-09T20:34:12.617Z,1.83
2022-10-09T20:36:41.714Z,1.80
2022-10-09T20:39:31.174Z,1.70
2022-10-09T20:42:01.523Z,1.93
2022-10-09T20:44:32.075Z,1.60
2022-10-09T20:47:01.053Z,2.03
2022-10-09T20:49:35.320Z,1.70
2022-10-09T20:52:11.024Z,1.50
2022-10-09T20:54:40.862Z,1.80
2022-10-09T20:57:11.333Z,1.43
2022-10-09T20:59:40.938Z,1.50
2022-10-09T21:02:15.748Z,1.63
2022-10-09T21:04:51.037Z,1.73
2022-10-09T21:07:21.852Z,1.77
2022-10-09T21:09:56.303Z,1.70
2022-10-09T21:12:25.412Z,1.50
2022-10-09T21:14:53.209Z,1.77
2022-10-09T21:17:21.880Z,1.50
2022-10-09T21:19:52.940Z,1.30
2022-10-09T21:22:21.610Z,1.67
2022-10-09T21:24:51.064Z,1.90
2022-10-09T21:27:20.364Z,1.83
2022-10-09T21:29:51.554Z,1.70
2022-10-09T21:32:22.043Z,1.50
2022-10-09T21:34:53.669Z,1.80
2022-10-09T21:37:22.419Z,1.80
2022-10-09T21:39:51.750Z,1.67
2022-10-09T21:42:21.707Z,1.87
2022-10-09T21:44:49.573Z,2.03
2022-10-09T21:47:21.160Z,2.00
2022-10-09T21:49:50.261Z,1.90
2022-10-09T21:52:19.414Z,1.93
2022-10-09T21:54:47.275Z,1.90
2022-10-09T21:57:15.697Z,1.67
2022-10-09T21:59:43.384Z,1.80
2022-10-09T22:02:11.327Z,2.10
2022-10-09T22:04:49.304Z,1.87
2022-10-09T22:07:42.779Z,2.00
2022-10-09T22:10:12.015Z,1.90
2022-10-09T22:12:42.595Z,2.43
2022-10-09T22:15:11.558Z,1.87
2022-10-09T22:17:41.348Z,2.10
2022-10-09T22:20:13.070Z,1.93
2022-10-09T22:22:52.843Z,1.80
2022-10-09T22:25:21.705Z,2.23
2022-10-09T22:27:52.137Z,2.23
2022-10-09T22:30:22.813Z,2.23
2022-10-09T22:32:53.697Z,2.20
2022-10-09T22:35:27.550Z,1.93
2022-10-09T22:38:01.044Z,2.43
2022-10-09T22:40:31.825Z,2.20
2022-10-09T22:43:03.167Z,1.90
2022-10-09T22:45:31.955Z,1.97
2022-10-09T22:48:02.565Z,2.07
2022-10-09T22:50:31.445Z,2.30
2022-10-09T22:53:01.743Z,2.10
2022-10-09T22:55:31.978Z,2.23
2022-10-09T22:58:03.456Z,2.70
2022-10-09T23:00:31.666Z,2.03
2022-10-09T23:03:01.659Z,2.40
2022-10-09T23:05:31.022Z,2.10
2022-10-09T23:08:03.370Z,2.30
2022-10-09T23:10:31.745Z,2.40
2022-10-09T23:13:01.896Z,2.60
2022-10-09T23:15:37.695Z,2.27
2022-10-09T23:18:11.543Z,2.63
2022-10-09T23:20:43.416Z,2.50
2022-10-09T23:23:12.500Z,2.30
2022-10-09T23:25:42.014Z,3.07
2022-10-09T23:28:11.952Z,2.50
2022-10-09T23:30:41.667Z,2.30
2022-10-09T23:33:13.520Z,2.60
2022-10-09T23:35:42.530Z,2.57
2022-10-09T23:38:11.976Z,2.70
2022-10-09T23:40:42.663Z,2.63
2022-10-09T23:43:12.165Z,2.40
2022-10-09T23:45:42.580Z,2.37
2022-10-09T23:48:11.940Z,2.90
2022-10-09T23:50:41.769Z,2.77
2022-10-09T23:53:29.122Z,2.40
2022-10-09T23:55:58.293Z,2.70
2022-10-09T23:58:30.748Z,2.60
